Time;durP1;ratioP1;P1;durP2;ratioP2;P2;SDS_P1;SDS_P2;PMS_P1;PMS_P2;Temp;Humidity;BMP_temperature;BMP_pressure;BME280_temperature;BME280_humidity;BME280_pressure;Samples;Min_cycle;Max_cycle;Signal;HPM_P1;HPM_P2
2023/02/05 00:01:57;;;;;;;1999.90;999.90;;;;;;;6.81;100.00;103608.50;10454284;28;20049;-69
2023/02/05 00:07:00;;;;;;;1999.90;999.90;;;;;;;7.04;100.00;103606.81;10413805;28;20192;-70
2023/02/05 00:12:02;;;;;;;1999.90;999.90;;;;;;;6.88;100.00;103607.66;10434196;28;20511;-69
2023/02/05 00:17:04;;;;;;;1999.90;999.90;;;;;;;7.04;100.00;103600.72;10437799;28;20056;-69
2023/02/05 00:22:06;;;;;;;1999.90;999.90;;;;;;;6.85;100.00;103592.84;10461672;28;20095;-69
2023/02/05 00:27:09;;;;;;;1999.90;999.90;;;;;;;7.01;100.00;103574.66;10462582;28;20056;-70
2023/02/05 00:32:11;;;;;;;1999.90;999.90;;;;;;;7.23;100.00;103559.97;10460819;28;20049;-69
2023/02/05 00:37:13;;;;;;;1999.90;999.90;;;;;;;7.13;100.00;103542.53;10461593;28;20420;-69
2023/02/05 00:42:16;;;;;;;1999.90;999.90;;;;;;;7.07;100.00;103565.13;10461373;28;20061;-69
2023/02/05 00:47:18;;;;;;;1999.90;999.90;;;;;;;7.13;100.00;103552.97;10461000;28;20060;-70
2023/02/05 00:52:21;;;;;;;1999.90;999.90;;;;;;;7.33;100.00;103546.06;10460653;28;20103;-69
2023/02/05 00:57:23;;;;;;;1999.90;999.90;;;;;;;7.28;100.00;103528.66;10461400;28;20057;-69
2023/02/05 01:02:26;;;;;;;1999.90;999.90;;;;;;;7.20;100.00;103534.75;10459899;28;20049;-69
2023/02/05 01:07:28;;;;;;;1999.90;999.90;;;;;;;7.28;100.00;103557.31;10458183;28;20518;-69
2023/02/05 01:12:32;;;;;;;1999.90;999.90;;;;;;;7.22;100.00;103551.25;10460608;28;20052;-69
2023/02/05 01:17:34;;;;;;;1999.90;999.90;;;;;;;7.17;100.00;103547.78;10458891;28;20052;-69
2023/02/05 01:22:36;;;;;;;1999.90;999.90;;;;;;;7.22;100.00;103540.81;10459929;28;20048;-69
2023/02/05 01:27:39;;;;;;;1999.90;999.90;;;;;;;7.16;100.00;103556.47;10440642;28;20049;-69
2023/02/05 01:32:41;;;;;;;1999.90;999.90;;;;;;;7.22;100.00;103563.41;10458959;28;20045;-69
2023/02/05 01:37:43;;;;;;;1999.90;999.90;;;;;;;7.27;100.00;103560.81;10459833;28;20103;-70
2023/02/05 01:42:46;;;;;;;1999.90;999.90;;;;;;;7.10;100.00;103571.22;10458953;28;20045;-69
2023/02/05 01:48:00;;;;;;;1999.90;999.90;;;;;;;7.22;100.00;103576.44;10458793;28;20057;-70
2023/02/05 01:53:07;;;;;;;1999.90;999.90;;;;;;;7.37;100.00;103576.44;10441254;28;20057;-70
2023/02/05 01:58:10;;;;;;;1999.90;999.90;;;;;;;7.04;100.00;103586.00;10441058;28;20538;-69
2023/02/05 02:03:13;;;;;;;1999.90;999.90;;;;;;;7.12;100.00;103579.91;10457228;28;20064;-69
2023/02/05 02:08:15;;;;;;;1999.90;999.90;;;;;;;7.39;100.00;103579.06;10457746;28;20095;-69
2023/02/05 02:13:19;;;;;;;1999.90;999.90;;;;;;;7.25;100.00;103571.25;10451916;23;20115;-65
2023/02/05 02:18:24;;;;;;;1999.90;999.90;;;;;;;7.62;100.00;103553.84;10415906;28;20057;-65
2023/02/05 02:23:52;;;;;;;1999.90;999.90;;;;;;;7.56;100.00;103539.97;10407776;28;20053;-65
2023/02/05 02:29:00;;;;;;;1999.90;999.90;;;;;;;7.80;100.00;103521.66;10403232;28;20124;-65
2023/02/05 02:34:41;;;;;;;1999.90;999.90;;;;;;;7.60;100.00;103502.59;10373914;28;20053;-65
2023/02/05 02:39:49;;;;;;;1999.90;999.90;;;;;;;7.30;100.00;103509.56;10366728;28;20077;-65
2023/02/05 02:45:04;;;;;;;1999.90;999.90;;;;;;;7.42;100.00;103524.31;10415176;28;20128;-65
2023/02/05 02:50:20;;;;;;;1999.90;999.90;;;;;;;7.57;100.00;103520.84;10413421;28;20508;-64
2023/02/05 02:55:24;;;;;;;1999.90;999.90;;;;;;;7.29;100.00;103507.81;10414082;28;20559;-64
2023/02/05 03:00:28;;;;;;;1999.90;999.90;;;;;;;7.28;100.00;103528.66;10414575;28;20049;-64
2023/02/05 03:05:31;;;;;;;1999.90;999.90;;;;;;;7.29;100.00;103515.63;10377833;28;20058;-64
2023/02/05 03:10:41;;;;;;;1999.90;999.90;;;;;;;7.38;100.00;103512.16;10391517;28;20050;-64
2023/02/05 03:15:44;;;;;;;1999.90;999.90;;;;;;;7.16;100.00;103496.53;10396487;28;20107;-64
2023/02/05 03:21:00;;;;;;;1999.90;999.90;;;;;;;7.30;100.00;103495.69;10415328;28;20119;-64
2023/02/05 03:26:03;;;;;;;1999.90;999.90;;;;;;;7.23;100.00;103505.22;10414103;28;20054;-64
2023/02/05 03:31:17;;;;;;;1999.90;999.90;;;;;;;7.12;100.00;103512.16;10406942;28;20053;-64
2023/02/05 03:36:39;;;;;;;1999.90;999.90;;;;;;;7.23;100.00;103506.09;10413943;28;20053;-64
2023/02/05 03:41:56;;;;;;;1999.90;999.90;;;;;;;7.10;100.00;103519.13;10413347;28;20053;-64
2023/02/05 03:47:04;;;;;;;1999.90;999.90;;;;;;;7.29;100.00;103539.09;10414764;28;20060;-64
2023/02/05 03:52:14;;;;;;;1999.90;999.90;;;;;;;7.27;100.00;103532.16;10412104;28;20420;-64
2023/02/05 03:57:36;;;;;;;1999.90;999.90;;;;;;;7.06;100.00;103531.25;10420557;28;20489;-64
2023/02/05 04:02:38;;;;;;;1999.90;999.90;;;;;;;7.10;100.00;103521.72;10419645;28;20455;-65
2023/02/05 04:07:41;;;;;;;1999.90;999.90;;;;;;;7.17;100.00;103526.94;10400866;28;20527;-64
2023/02/05 04:12:43;;;;;;;1999.90;999.90;;;;;;;6.97;100.00;103526.91;10413580;28;20455;-64
2023/02/05 04:17:45;;;;;;;1999.90;999.90;;;;;;;6.89;100.00;103528.63;10421767;28;20053;-64
2023/02/05 04:22:48;;;;;;;1999.90;999.90;;;;;;;7.07;100.00;103518.22;10420945;28;20127;-64
2023/02/05 04:27:50;;;;;;;1999.90;999.90;;;;;;;6.92;100.00;103530.38;10416101;28;20053;-65
2023/02/05 04:32:52;;;;;;;1999.90;999.90;;;;;;;6.91;100.00;103515.59;10420472;28;20163;-64
2023/02/05 04:37:54;;;;;;;1999.90;999.90;;;;;;;6.93;100.00;103506.94;10421299;28;20057;-64
2023/02/05 04:42:57;;;;;;;1999.90;999.90;;;;;;;6.86;100.00;103511.28;10377900;28;20054;-64
2023/02/05 04:48:00;;;;;;;1999.90;999.90;;;;;;;6.98;100.00;103512.16;10383288;28;20057;-64
2023/02/05 04:53:02;;;;;;;1999.90;999.90;;;;;;;6.92;100.00;103513.00;10420257;28;20056;-64
2023/02/05 04:58:05;;;;;;;1999.90;999.90;;;;;;;6.90;100.00;103509.53;10420274;28;20104;-64
2023/02/05 05:03:07;;;;;;;1999.90;999.90;;;;;;;7.01;100.00;103515.63;10419020;28;20057;-64
2023/02/05 05:08:09;;;;;;;1999.90;999.90;;;;;;;7.04;100.00;103517.34;10417879;28;20057;-64
2023/02/05 05:13:12;;;;;;;1999.90;999.90;;;;;;;7.00;100.00;103513.88;10418695;28;20377;-65
2023/02/05 05:18:14;;;;;;;1999.90;999.90;;;;;;;6.87;100.00;103515.59;10418795;28;20061;-65
2023/02/05 05:23:16;;;;;;;1999.90;999.90;;;;;;;6.99;100.00;103512.16;10419281;28;20053;-65
2023/02/05 05:28:19;;;;;;;1999.90;999.90;;;;;;;6.91;100.00;103513.91;10411327;28;20053;-65
2023/02/05 05:33:21;;;;;;;1999.90;999.90;;;;;;;6.99;100.00;103517.38;10375957;28;20519;-65
2023/02/05 05:38:24;;;;;;;1999.90;999.90;;;;;;;6.91;100.00;103511.28;10383850;28;20053;-65
2023/02/05 05:48:52;;;;;;;;;;;;;;;6.93;100.00;103506.94;10408368;28;20080;-65
2023/02/05 05:53:55;;;;;;;1999.90;999.90;;;;;;;6.69;100.00;103497.34;10376477;28;19928;-64
2023/02/05 05:58:57;;;;;;;1999.90;999.90;;;;;;;6.79;100.00;103500.84;10375828;28;20061;-64
2023/02/05 06:04:00;;;;;;;1999.90;999.90;;;;;;;6.80;100.00;103497.38;10372273;28;20405;-65
2023/02/05 06:09:05;;;;;;;1999.90;999.90;;;;;;;6.75;100.00;103489.53;10415793;28;20049;-65
2023/02/05 06:14:07;;;;;;;1999.90;999.90;;;;;;;6.60;100.00;103477.34;10417084;28;20107;-65
2023/02/05 06:19:10;;;;;;;1999.90;999.90;;;;;;;6.63;100.00;103476.50;10414680;28;20053;-64
2023/02/05 06:24:12;;;;;;;1999.90;999.90;;;;;;;6.81;100.00;103467.88;10415732;28;20111;-64
2023/02/05 06:29:14;;;;;;;1999.90;999.90;;;;;;;6.78;100.00;103468.72;10415642;28;20129;-64
2023/02/05 06:34:17;;;;;;;1999.90;999.90;;;;;;;6.71;100.00;103474.78;10415731;28;20053;-64
2023/02/05 06:39:19;;;;;;;1999.90;999.90;;;;;;;6.67;100.00;103486.06;10415173;28;20053;-64
2023/02/05 06:44:23;;;;;;;1999.90;999.90;;;;;;;6.55;100.00;103514.66;10380636;28;20445;-64
2023/02/05 06:49:25;;;;;;;1999.90;999.90;;;;;;;6.49;100.00;103544.16;10390092;28;20056;-64
2023/02/05 06:54:27;;;;;;;1999.90;999.90;;;;;;;6.30;100.00;103567.50;10396657;28;20041;-64
2023/02/05 06:59:30;;;;;;;1999.90;999.90;;;;;;;5.93;100.00;103563.78;10415116;28;20054;-64
2023/02/05 07:04:32;;;;;;;1999.90;999.90;;;;;;;5.71;100.00;103570.56;10414518;28;20049;-64
2023/02/05 07:09:34;;;;;;;1999.90;999.90;;;;;;;5.83;100.00;103581.03;10414449;28;20061;-64
2023/02/05 07:14:40;;;;;;;1999.90;999.90;;;;;;;5.81;100.00;103589.69;10413915;28;20060;-64
2023/02/05 07:19:43;;;;;;;1999.90;999.90;;;;;;;5.65;100.00;103600.00;10413612;28;20131;-64
2023/02/05 07:24:45;;;;;;;1999.90;999.90;;;;;;;5.65;100.00;103607.78;10413639;28;20049;-64
2023/02/05 07:29:47;;;;;;;1999.90;999.90;;;;;;;5.65;100.00;103610.38;10400593;28;20060;-64
2023/02/05 07:34:50;;;;;;;1999.90;999.90;;;;;;;5.57;100.00;103628.50;10422641;28;20053;-64
2023/02/05 07:39:52;;;;;;;1999.90;999.90;;;;;;;5.72;100.00;103634.69;10421521;28;20496;-64
2023/02/05 07:44:54;;;;;;;1999.90;999.90;;;;;;;5.56;100.00;103644.06;10422172;28;20050;-64
2023/02/05 07:49:56;;;;;;;1999.90;999.90;;;;;;;5.68;100.00;103641.59;10420906;28;20111;-64
2023/02/05 07:54:59;;;;;;;1999.90;999.90;;;;;;;5.93;100.00;103641.78;10422612;28;20107;-64
2023/02/05 08:00:02;;;;;;;1999.90;999.90;;;;;;;5.94;100.00;103646.16;10420702;28;20408;-64
2023/02/05 08:05:04;;;;;;;1999.90;999.90;;;;;;;5.91;100.00;103651.31;10399049;28;20120;-64
2023/02/05 08:10:08;;;;;;;1999.90;999.90;;;;;;;5.91;100.00;103651.31;10383028;28;20049;-64
2023/02/05 08:15:10;;;;;;;1999.90;999.90;;;;;;;5.94;100.00;103651.34;10419043;28;20500;-64
2023/02/05 08:20:13;;;;;;;1999.90;999.90;;;;;;;5.86;100.00;103655.59;10421551;28;20057;-64
2023/02/05 08:25:16;;;;;;;1999.90;999.90;;;;;;;6.09;100.00;103669.69;10419403;28;20076;-64
2023/02/05 08:30:20;;;;;;;1999.90;999.90;;;;;;;6.05;100.00;103674.84;10420322;28;20068;-64
2023/02/05 08:35:22;;;;;;;1999.90;999.90;;;;;;;5.97;100.00;103674.81;10420269;28;20046;-65
2023/02/05 08:40:25;;;;;;;1999.90;999.90;;;;;;;5.94;100.00;103679.94;10435421;28;20057;-65
2023/02/05 08:45:27;;;;;;;1999.90;999.90;;;;;;;6.01;100.00;103665.31;10431183;28;20096;-65
2023/02/05 08:50:30;;;;;;;1999.90;999.90;;;;;;;6.09;100.00;103684.44;10418812;28;20140;-65
2023/02/05 08:55:32;;;;;;;1999.90;999.90;;;;;;;5.93;100.00;103676.50;10402690;28;20053;-65
2023/02/05 09:00:37;;;;;;;1999.90;999.90;;;;;;;5.97;100.00;103705.13;10419515;28;20468;-65
2023/02/05 09:05:40;;;;;;;1999.90;999.90;;;;;;;6.06;100.00;103706.09;10419323;28;20484;-65
2023/02/05 09:10:43;;;;;;;1999.90;999.90;;;;;;;6.30;100.00;103715.81;10419724;28;20053;-65
2023/02/05 09:15:47;;;;;;;1999.90;999.90;;;;;;;6.56;100.00;103699.50;10418706;28;20497;-65
2023/02/05 09:20:50;;;;;;;1999.90;999.90;;;;;;;6.32;100.00;103702.78;10419428;28;20053;-65
2023/02/05 09:25:52;;;;;;;1999.90;999.90;;;;;;;6.27;100.00;103709.69;10419163;28;20045;-65
2023/02/05 09:30:54;;;;;;;1999.90;999.90;;;;;;;6.82;100.00;103698.75;10417745;28;20053;-65
2023/02/05 09:35:57;;;;;;;1999.90;999.90;;;;;;;7.27;100.00;103698.94;10418130;28;20129;-63
2023/02/05 09:41:11;;;;;;;1999.90;999.90;;;;;;;7.13;100.00;103698.88;10416916;28;20049;-63
2023/02/05 09:46:37;;;;;;;1999.90;999.90;;;;;;;7.01;100.00;103700.59;10416939;28;20058;-63
2023/02/05 09:51:46;;;;;;;1999.90;999.90;;;;;;;7.18;100.00;103687.63;10396339;28;20061;-63
2023/02/05 09:56:50;;;;;;;1999.90;999.90;;;;;;;7.81;100.00;103694.69;10417003;28;20053;-63
2023/02/05 10:01:59;;;;;;;1999.90;999.90;;;;;;;7.04;100.00;103678.88;10416216;28;20060;-63
2023/02/05 10:07:17;;;;;;;1999.90;999.90;;;;;;;6.86;100.00;103692.72;10416013;28;20412;-63
2023/02/05 10:12:49;;;;;;;1999.90;999.90;;;;;;;7.10;100.00;103702.34;10415992;28;20054;-64
2023/02/05 10:18:09;;;;;;;1999.90;999.90;;;;;;;6.95;100.00;103713.59;10351611;28;20053;-63
2023/02/05 10:23:18;;;;;;;1999.90;999.90;;;;;;;7.07;100.00;103710.16;10428623;28;20053;-63
2023/02/05 10:28:54;;;;;;;1999.90;999.90;;;;;;;7.01;100.00;103707.53;10434314;28;20057;-63
2023/02/05 10:34:35;;;;;;;1999.90;999.90;;;;;;;7.11;100.00;103692.78;10416591;28;20053;-63
2023/02/05 10:39:38;;;;;;;1999.90;999.90;;;;;;;7.10;100.00;103706.72;10376828;28;20065;-63
2023/02/05 10:44:44;;;;;;;1999.90;999.90;;;;;;;7.36;100.00;103712.88;10446157;28;20426;-63
2023/02/05 10:49:51;;;;;;;1999.90;999.90;;;;;;;7.50;100.00;103698.97;10426757;28;20122;-63
2023/02/05 10:54:54;;;;;;;1999.90;999.90;;;;;;;7.34;100.00;103698.09;10371766;28;20406;-65
2023/02/05 11:00:12;;;;;;;1999.90;999.90;;;;;;;7.19;100.00;103722.38;10408205;28;20443;-63
2023/02/05 11:05:51;;;;;;;1999.90;999.90;;;;;;;7.29;100.00;103715.44;10371279;28;20053;-62
2023/02/05 11:10:53;;;;;;;1999.90;999.90;;;;;;;7.33;100.00;103711.97;10367033;28;20058;-62
2023/02/05 11:16:00;;;;;;;1999.90;999.90;;;;;;;7.39;100.00;103714.59;10397903;28;20459;-62
2023/02/05 11:21:05;;;;;;;1999.90;999.90;;;;;;;7.19;100.00;103723.22;10443952;28;20488;-62
2023/02/05 11:26:13;;;;;;;1999.90;999.90;;;;;;;7.40;100.00;103700.72;10373467;28;20049;-62
2023/02/05 11:31:26;;;;;;;1999.90;999.90;;;;;;;8.67;97.99;103698.97;10357120;28;20056;-62
2023/02/05 11:36:28;;;;;;;1999.90;999.90;;;;;;;7.96;97.95;103712.94;10402846;28;20096;-63
2023/02/05 11:41:46;;;;;;;1999.90;999.90;;;;;;;7.91;98.80;103703.38;10413140;28;20057;-62
2023/02/05 11:46:55;;;;;;;1999.90;999.90;;;;;;;7.94;97.45;103719.91;10372464;28;20050;-63
2023/02/05 11:51:58;;;;;;;1999.90;999.90;;;;;;;7.85;96.36;103706.88;10373270;28;20523;-63
2023/02/05 11:57:12;;;;;;;1999.90;999.90;;;;;;;7.80;96.86;103719.91;10407153;28;20058;-62
2023/02/05 12:02:29;;;;;;;1999.90;999.90;;;;;;;7.58;99.64;103741.59;10394120;28;20058;-62
2023/02/05 12:07:42;;;;;;;1999.90;999.90;;;;;;;7.74;100.00;103732.94;10412673;28;20060;-62
2023/02/05 12:12:59;;;;;;;1999.90;999.90;;;;;;;7.71;100.00;103751.19;10373438;28;20062;-62
2023/02/05 12:18:36;;;;;;;1999.90;999.90;;;;;;;8.04;98.07;103744.28;10381373;28;20057;-62
2023/02/05 12:23:44;;;;;;;1999.90;999.90;;;;;;;7.85;96.80;103746.00;10404311;28;20057;-62
2023/02/05 12:28:52;;;;;;;1999.90;999.90;;;;;;;7.51;100.00;103748.53;10419918;28;20053;-63
2023/02/05 12:34:09;;;;;;;1999.90;999.90;;;;;;;7.69;100.00;103752.06;10421225;28;20050;-63
2023/02/05 12:39:14;;;;;;;1999.90;999.90;;;;;;;8.08;97.53;103740.78;10419452;28;20065;-63
2023/02/05 12:44:44;;;;;;;1999.90;999.90;;;;;;;8.67;94.43;103727.69;10419346;28;20053;-62
2023/02/05 12:50:21;;;;;;;1999.90;999.90;;;;;;;8.35;88.82;103728.59;10402503;28;20054;-63
2023/02/05 12:55:58;;;;;;;1999.90;999.90;;;;;;;8.04;88.29;103741.66;10379222;28;20521;-62
2023/02/05 13:01:11;;;;;;;1999.90;999.90;;;;;;;7.85;93.44;103755.53;10379523;28;20061;-62
2023/02/05 13:06:26;;;;;;;1999.90;999.90;;;;;;;7.96;100.00;103769.47;10408841;28;20061;-62
2023/02/05 13:11:31;;;;;;;1999.90;999.90;;;;;;;7.97;100.00;103769.50;10418979;28;20061;-62
2023/02/05 13:16:53;;;;;;;1999.90;999.90;;;;;;;8.08;100.00;103764.25;10416673;28;20088;-63
2023/02/05 13:32:50;;;;;;;1999.90;999.90;;;;;;;8.24;100.00;103801.69;10417754;28;20054;-62
2023/02/05 13:38:17;;;;;;;1999.90;999.90;;;;;;;10.12;91.87;103790.59;10417823;28;20103;-62
2023/02/05 13:43:37;;;;;;;1999.90;999.90;;;;;;;8.87;92.74;103785.97;10409860;28;20484;-63
2023/02/05 13:49:08;;;;;;;1999.90;999.90;;;;;;;8.27;92.42;103796.47;10384231;28;20064;-62
2023/02/05 13:54:11;;;;;;;1999.90;999.90;;;;;;;8.68;89.84;103813.03;10416967;28;20104;-63
2023/02/05 13:59:19;;;;;;;1999.90;999.90;;;;;;;8.80;83.79;103804.31;10457549;28;20053;-63
2023/02/05 14:04:34;;;;;;;1999.90;999.90;;;;;;;9.47;84.09;103805.81;10438856;28;20417;-63
2023/02/05 14:09:51;;;;;;;1999.90;999.90;;;;;;;9.78;80.80;103811.75;10414828;28;20088;-63
2023/02/05 14:15:16;;;;;;;1999.90;999.90;;;;;;;9.26;78.70;103806.78;10415574;28;20053;-63
2023/02/05 14:20:24;;;;;;;1999.90;999.90;;;;;;;9.39;78.79;103826.78;10415754;28;20053;-63
2023/02/05 14:25:38;;;;;;;1999.90;999.90;;;;;;;11.84;71.43;103818.44;10416443;28;20053;-63
2023/02/05 14:30:46;;;;;;;1999.90;999.90;;;;;;;8.95;75.06;103834.75;10421568;23;20064;-63
2023/02/05 14:35:49;;;;;;;1999.90;999.90;;;;;;;9.57;76.93;103833.69;10412107;28;20127;-63
2023/02/05 14:41:12;;;;;;;1999.90;999.90;;;;;;;9.17;77.41;103823.38;10411917;28;20060;-63
2023/02/05 14:46:30;;;;;;;1999.90;999.90;;;;;;;9.15;77.35;103819.91;10413790;28;20575;-64
2023/02/05 14:51:37;;;;;;;1999.90;999.90;;;;;;;9.53;78.32;103821.50;10412613;28;20567;-63
2023/02/05 14:56:46;;;;;;;1999.90;999.90;;;;;;;8.78;78.21;103826.97;10413361;28;20412;-63
2023/02/05 15:01:51;;;;;;;1999.90;999.90;;;;;;;8.84;78.39;103833.03;10413540;28;20444;-63
2023/02/05 15:06:57;;;;;;;1999.90;999.90;;;;;;;8.82;78.80;103829.53;10409847;28;20088;-63
2023/02/05 15:12:14;;;;;;;1999.90;999.90;;;;;;;8.36;80.03;103842.59;10411544;28;20053;-63
2023/02/05 15:17:26;;;;;;;1999.90;999.90;;;;;;;8.45;80.16;103844.38;10415585;28;20091;-63
2023/02/05 15:22:37;;;;;;;1999.90;999.90;;;;;;;8.63;79.53;103833.94;10414465;28;20050;-63
2023/02/05 15:27:46;;;;;;;1999.90;999.90;;;;;;;8.74;77.77;103840.00;10425817;28;20061;-63
2023/02/05 15:32:50;;;;;;;1999.90;999.90;;;;;;;8.27;78.87;103850.41;10364885;28;20073;-63
2023/02/05 15:37:54;;;;;;;1999.90;999.90;;;;;;;8.07;81.42;103845.16;10371780;28;20093;-63
2023/02/05 15:43:15;;;;;;;1999.90;999.90;;;;;;;7.62;81.54;103858.94;10332390;28;20058;-63
2023/02/05 15:48:24;;;;;;;1999.90;999.90;;;;;;;7.85;82.14;103862.50;10331983;28;20391;-63
2023/02/05 15:53:34;;;;;;;1999.90;999.90;;;;;;;7.75;83.70;103872.03;10340366;28;20054;-63
2023/02/05 15:58:36;;;;;;;1999.90;999.90;;;;;;;7.81;84.20;103880.75;10369545;28;20049;-63
2023/02/05 16:03:39;;;;;;;1999.90;999.90;;;;;;;7.67;84.30;103895.47;10323954;28;20050;-63
2023/02/05 16:08:46;;;;;;;1999.90;999.90;;;;;;;7.59;84.78;103905.88;10344683;28;20058;-63
2023/02/05 16:13:58;;;;;;;1999.90;999.90;;;;;;;7.62;83.64;103915.47;10370013;28;20054;-63
2023/02/05 16:19:03;;;;;;;1999.90;999.90;;;;;;;7.62;85.22;103929.34;10381880;28;20053;-65
2023/02/05 16:24:11;;;;;;;1999.90;999.90;;;;;;;7.16;84.34;103934.31;10381009;28;20050;-66
2023/02/05 16:29:22;;;;;;;1999.90;999.90;;;;;;;7.31;84.58;103943.06;10399079;28;20130;-66
2023/02/05 16:34:31;;;;;;;1999.90;999.90;;;;;;;7.27;83.08;103941.31;10403745;28;20076;-66
2023/02/05 16:39:41;;;;;;;1999.90;999.90;;;;;;;6.94;85.00;103943.66;10380302;28;20127;-66
2023/02/05 16:44:47;;;;;;;1999.90;999.90;;;;;;;6.71;85.31;103964.31;10400022;28;20061;-65
2023/02/05 16:49:50;;;;;;;1999.90;999.90;;;;;;;6.48;85.13;103970.16;10403480;28;20100;-65
2023/02/05 16:54:53;;;;;;;1999.90;999.90;;;;;;;6.56;84.06;103977.19;10401346;28;20053;-65
2023/02/05 17:00:05;;;;;;;1999.90;999.90;;;;;;;6.31;82.61;104000.34;10413652;28;20405;-66
2023/02/05 17:05:21;;;;;;;1999.90;999.90;;;;;;;6.46;83.61;104002.25;10447502;28;20045;-65
2023/02/05 17:10:23;;;;;;;1999.90;999.90;;;;;;;6.26;84.20;104002.88;10419702;28;20061;-65
2023/02/05 17:15:29;;;;;;;1999.90;999.90;;;;;;;6.37;85.47;104009.94;10437055;28;20492;-66
2023/02/05 17:20:32;;;;;;;1999.90;999.90;;;;;;;6.11;84.93;104006.16;10460434;28;20487;-66
2023/02/05 17:25:41;;;;;;;1999.90;999.90;;;;;;;5.84;87.80;104006.63;10442588;28;20083;-65
2023/02/05 17:30:45;;;;;;;1999.90;999.90;;;;;;;5.79;87.80;104004.84;10426042;28;20061;-66
2023/02/05 17:35:48;;;;;;;1999.90;999.90;;;;;;;5.63;88.34;104012.41;10442720;28;20052;-66
2023/02/05 17:42:02;;;;;;;1999.90;999.90;;;;;;;5.72;89.09;104009.94;10442523;28;20057;-65
2023/02/05 17:46:16;;;;;;;1999.90;999.90;;;;;;;5.71;89.17;104012.50;10444636;28;20484;-65
2023/02/05 17:51:20;;;;;;;1999.90;999.90;;;;;;;5.65;90.74;104009.81;10441699;28;20416;-65
2023/02/05 17:56:22;;;;;;;1999.90;999.90;;;;;;;5.61;90.70;104001.09;10441188;28;20403;-66
2023/02/05 18:01:25;;;;;;;1999.90;999.90;;;;;;;5.49;90.50;104007.00;10432919;28;20053;-65
2023/02/05 18:06:28;;;;;;;1999.90;999.90;;;;;;;5.48;90.16;104014.75;10458510;28;20404;-65
2023/02/05 18:11:30;;;;;;;1999.90;999.90;;;;;;;5.34;91.42;104024.94;10457684;28;20057;-66
2023/02/05 18:16:32;;;;;;;1999.90;999.90;;;;;;;5.37;93.46;104025.00;10441089;28;20049;-65
2023/02/05 18:21:35;;;;;;;1999.90;999.90;;;;;;;5.33;93.72;104033.56;10422691;28;20554;-66
2023/02/05 18:26:37;;;;;;;1999.90;999.90;;;;;;;5.39;94.23;104047.53;10413750;28;20455;-65
2023/02/05 18:31:39;;;;;;;1999.90;999.90;;;;;;;5.37;94.48;104048.38;10414975;28;20061;-65
2023/02/05 18:36:42;;;;;;;1999.90;999.90;;;;;;;5.34;95.68;104045.72;10398633;28;20128;-65
2023/02/05 18:41:44;;;;;;;1999.90;999.90;;;;;;;5.34;97.09;104043.13;10415677;28;20108;-65
2023/02/05 18:46:47;;;;;;;1999.90;999.90;;;;;;;5.04;97.87;104049.53;10413600;28;20045;-65
2023/02/05 18:51:49;;;;;;;1999.90;999.90;;;;;;;5.10;100.00;104065.25;10408144;28;20102;-65
2023/02/05 18:56:53;;;;;;;1999.90;999.90;;;;;;;5.12;100.00;104068.72;10421556;28;20057;-65
2023/02/05 19:01:55;;;;;;;1999.90;999.90;;;;;;;5.22;100.00;104086.22;10415975;28;20107;-65
2023/02/05 19:06:58;;;;;;;1999.90;999.90;;;;;;;5.06;100.00;104085.94;10415893;28;20049;-65
2023/02/05 19:12:00;;;;;;;1999.90;999.90;;;;;;;5.07;100.00;104103.28;10414705;28;20481;-65
2023/02/05 19:17:03;;;;;;;1999.90;999.90;;;;;;;4.95;100.00;104111.72;10415624;28;20060;-65
2023/02/05 19:22:05;;;;;;;1999.90;999.90;;;;;;;5.02;100.00;104110.97;10413285;28;20049;-66
2023/02/05 19:27:07;;;;;;;1999.90;999.90;;;;;;;4.92;100.00;104102.13;10422789;28;20061;-66
2023/02/05 19:32:10;;;;;;;1999.90;999.90;;;;;;;4.90;100.00;104109.00;10421701;28;20072;-65
2023/02/05 19:37:14;;;;;;;1999.90;999.90;;;;;;;4.67;100.00;104100.75;10423709;28;20052;-65
2023/02/05 19:42:16;;;;;;;1999.90;999.90;;;;;;;4.81;100.00;104103.66;10422615;28;20057;-65
2023/02/05 19:47:20;;;;;;;1999.90;999.90;;;;;;;4.65;100.00;104094.66;10423353;28;20057;-65
2023/02/05 19:52:22;;;;;;;1999.90;999.90;;;;;;;4.68;100.00;104086.94;10422172;28;20057;-65
2023/02/05 19:57:25;;;;;;;1999.90;999.90;;;;;;;4.62;100.00;104086.81;10422276;28;20053;-65
2023/02/05 20:02:28;;;;;;;1999.90;999.90;;;;;;;4.53;100.00;104100.50;10421097;28;20515;-65
2023/02/05 20:07:32;;;;;;;1999.90;999.90;;;;;;;4.24;100.00;104113.72;10422543;28;20129;-65
2023/02/05 20:12:35;;;;;;;1999.90;999.90;;;;;;;4.41;100.00;104121.88;10421504;28;20416;-65
2023/02/05 20:17:37;;;;;;;1999.90;999.90;;;;;;;4.31;100.00;104135.47;10421831;28;20049;-65
2023/02/05 20:22:39;;;;;;;1999.90;999.90;;;;;;;4.32;100.00;104132.06;10420905;28;20104;-65
2023/02/05 20:27:42;;;;;;;1999.90;999.90;;;;;;;4.27;100.00;104149.25;10419178;28;20053;-65
2023/02/05 20:32:44;;;;;;;1999.90;999.90;;;;;;;4.35;100.00;104155.44;10381170;28;20058;-65
2023/02/05 20:37:47;;;;;;;1999.90;999.90;;;;;;;4.18;100.00;104149.88;10379170;28;20409;-65
2023/02/05 20:42:49;;;;;;;1999.90;999.90;;;;;;;4.28;100.00;104157.03;10380520;28;20056;-65
2023/02/05 20:47:51;;;;;;;1999.90;999.90;;;;;;;4.22;100.00;104161.19;10381272;28;20050;-65
2023/02/05 20:52:54;;;;;;;1999.90;999.90;;;;;;;4.12;100.00;104167.00;10420254;28;20465;-65
2023/02/05 20:57:56;;;;;;;1999.90;999.90;;;;;;;4.08;100.00;104164.38;10420634;28;20054;-65
2023/02/05 21:02:58;;;;;;;1999.90;999.90;;;;;;;3.85;100.00;104169.00;10419212;28;20483;-65
2023/02/05 21:08:01;;;;;;;1999.90;999.90;;;;;;;3.94;100.00;104181.28;10418460;28;20061;-65
2023/02/05 21:13:03;;;;;;;1999.90;999.90;;;;;;;3.65;100.00;104183.16;10419981;28;20061;-65
2023/02/05 21:18:07;;;;;;;1999.90;999.90;;;;;;;3.74;100.00;104182.53;10418094;28;20046;-65
2023/02/05 21:23:09;;;;;;;1999.90;999.90;;;;;;;3.67;100.00;104202.22;10419710;28;20094;-65
2023/02/05 21:28:12;;;;;;;1999.90;999.90;;;;;;;3.56;100.00;104203.63;10413306;28;20057;-65
2023/02/05 21:33:14;;;;;;;1999.90;999.90;;;;;;;3.67;100.00;104212.59;10417809;28;20451;-65
2023/02/05 21:38:17;;;;;;;1999.90;999.90;;;;;;;3.60;100.00;104202.88;10410951;28;20113;-65
2023/02/05 21:43:19;;;;;;;1999.90;999.90;;;;;;;3.34;100.00;104200.47;10377981;28;20057;-65
2023/02/05 21:48:21;;;;;;;1999.90;999.90;;;;;;;3.23;100.00;104207.06;10410154;28;20502;-65
2023/02/05 21:53:23;;;;;;;1999.90;999.90;;;;;;;3.26;100.00;104212.31;10418481;28;20057;-65
2023/02/05 21:58:26;;;;;;;1999.90;999.90;;;;;;;3.33;100.00;104203.91;10381385;28;20057;-65
2023/02/05 22:03:28;;;;;;;1999.90;999.90;;;;;;;3.08;100.00;104207.53;10404968;28;20053;-65
2023/02/05 22:08:34;;;;;;;1999.90;999.90;;;;;;;3.20;100.00;104207.84;10414990;28;20420;-65
2023/02/05 22:13:41;;;;;;;1999.90;999.90;;;;;;;2.96;100.00;104210.63;10416724;28;20057;-65
2023/02/05 22:18:44;;;;;;;1999.90;999.90;;;;;;;2.98;100.00;104217.59;10416179;28;20065;-65
2023/02/05 22:23:48;;;;;;;1999.90;999.90;;;;;;;3.06;100.00;104214.34;10417353;28;20057;-65
2023/02/05 22:28:50;;;;;;;1999.90;999.90;;;;;;;3.14;100.00;104218.03;10414630;28;20064;-65
2023/02/05 22:33:53;;;;;;;1999.90;999.90;;;;;;;2.76;100.00;104210.03;10416309;28;20053;-65